createdAt,value
2023-03-16T00:00:31.890Z,10.87
2023-03-16T00:01:33.580Z,10.03
2023-03-16T00:02:34.977Z,10.60
2023-03-16T00:03:36.491Z,10.07
2023-03-16T00:04:38.179Z,10.20
2023-03-16T00:05:39.928Z,11.30
2023-03-16T00:06:41.509Z,11.57
2023-03-16T00:07:43.626Z,11.53
2023-03-16T00:08:48.070Z,11.57
2023-03-16T00:09:50.712Z,10.60
2023-03-16T00:10:54.373Z,10.10
2023-03-16T00:11:58.794Z,11.50
2023-03-16T00:13:00.495Z,11.30
2023-03-16T00:14:04.365Z,12.47
2023-03-16T00:15:16.428Z,12.23
2023-03-16T00:16:19.210Z,9.60
2023-03-16T00:17:24.164Z,11.60
2023-03-16T00:18:32.731Z,11.47
2023-03-16T00:19:39.173Z,9.77
2023-03-16T00:20:44.572Z,11.40
2023-03-16T00:22:09.433Z,11.00
2023-03-16T00:23:11.927Z,10.23
2023-03-16T00:24:29.597Z,10.60
2023-03-16T00:25:40.553Z,9.87
2023-03-16T00:26:48.814Z,10.20
2023-03-16T00:27:51.792Z,10.50
2023-03-16T00:28:54.549Z,9.27
2023-03-16T00:30:06.431Z,10.27
2023-03-16T00:31:15.628Z,11.10
2023-03-16T00:32:27.747Z,10.17
2023-03-16T00:33:44.286Z,12.37
2023-03-16T00:35:00.745Z,11.07
2023-03-16T00:36:08.425Z,11.40
2023-03-16T00:37:15.933Z,11.50
2023-03-16T00:38:18.369Z,12.00
2023-03-16T00:39:20.742Z,11.13
2023-03-16T00:40:25.145Z,12.53
2023-03-16T00:41:26.956Z,13.50
2023-03-16T00:42:34.559Z,12.03
2023-03-16T00:43:44.984Z,13.67
2023-03-16T00:44:46.970Z,11.17
2023-03-16T00:45:51.963Z,13.17
2023-03-16T00:46:53.797Z,12.83
2023-03-16T00:47:55.880Z,13.23
2023-03-16T00:49:06.364Z,12.73
2023-03-16T00:50:19.787Z,11.73
2023-03-16T00:51:26.124Z,12.50
2023-03-16T00:52:28.818Z,13.53
2023-03-16T00:53:36.908Z,12.33
2023-03-16T00:54:42.049Z,12.40
2023-03-16T00:55:46.789Z,11.77
2023-03-16T00:56:51.653Z,12.30
2023-03-16T00:57:55.056Z,13.10
2023-03-16T00:59:02.842Z,12.70
2023-03-16T01:00:13.089Z,12.80
2023-03-16T01:01:16.519Z,12.23
2023-03-16T01:02:26.928Z,11.67
2023-03-16T01:03:28.823Z,13.33
2023-03-16T01:04:34.356Z,11.83
2023-03-16T01:05:40.208Z,12.87
2023-03-16T01:06:42.221Z,12.80
2023-03-16T01:07:47.995Z,11.50
2023-03-16T01:08:53.316Z,11.30
2023-03-16T01:09:55.250Z,11.50
2023-03-16T01:10:57.558Z,12.00
2023-03-16T01:11:59.582Z,12.97
2023-03-16T01:13:06.294Z,13.20
2023-03-16T01:14:08.012Z,12.00
2023-03-16T01:15:10.065Z,11.30
2023-03-16T01:16:12.387Z,12.77
2023-03-16T01:17:17.720Z,12.83
2023-03-16T01:18:31.548Z,14.00
2023-03-16T01:21:15.865Z,14.00
2023-03-16T01:22:17.876Z,12.60
2023-03-16T01:23:23.571Z,11.53
2023-03-16T01:24:25.666Z,12.53
2023-03-16T01:25:36.618Z,14.47
2023-03-16T01:26:45.154Z,13.57
2023-03-16T01:27:47.984Z,19.30
2023-03-16T01:28:49.732Z,17.63
2023-03-16T01:29:52.583Z,18.17
2023-03-16T01:31:02.206Z,15.27
2023-03-16T01:32:11.334Z,16.97
2023-03-16T01:33:19.466Z,19.60
2023-03-16T01:34:47.706Z,17.03
2023-03-16T01:35:57.397Z,17.87
2023-03-16T01:36:59.806Z,20.27
2023-03-16T01:38:12.967Z,18.17
2023-03-16T01:39:15.422Z,21.50
2023-03-16T01:40:20.069Z,20.57
2023-03-16T01:41:28.102Z,20.03
2023-03-16T01:42:33.527Z,20.73
2023-03-16T01:43:37.557Z,17.67
2023-03-16T01:44:51.794Z,21.17
2023-03-16T01:46:25.014Z,19.60
2023-03-16T01:47:30.774Z,22.60
2023-03-16T01:48:39.377Z,20.00
2023-03-16T01:49:50.772Z,17.70
2023-03-16T01:50:56.544Z,19.43
2023-03-16T01:52:16.273Z,17.70
2023-03-16T01:53:18.621Z,17.37
2023-03-16T01:54:39.730Z,18.13
2023-03-16T01:55:42.664Z,17.27
2023-03-16T01:56:54.227Z,19.10
2023-03-16T01:57:59.569Z,19.90
2023-03-16T01:59:04.409Z,17.97
2023-03-16T02:00:23.804Z,20.27
2023-03-16T02:01:42.458Z,20.03
2023-03-16T02:02:55.524Z,19.87
2023-03-16T02:04:27.429Z,21.03
2023-03-16T02:05:42.947Z,20.30
2023-03-16T02:06:47.454Z,20.60
2023-03-16T02:07:59.994Z,20.20
2023-03-16T02:09:04.308Z,18.93
2023-03-16T02:10:06.692Z,18.40
2023-03-16T02:11:10.835Z,21.73
2023-03-16T02:12:20.624Z,20.27
2023-03-16T02:13:37.461Z,19.63
2023-03-16T02:14:49.619Z,20.27
2023-03-16T02:15:55.365Z,18.97
2023-03-16T02:17:08.578Z,19.23
2023-03-16T02:18:13.504Z,20.90
2023-03-16T02:19:31.200Z,19.33
2023-03-16T02:20:39.913Z,19.20
2023-03-16T02:21:54.757Z,21.43
2023-03-16T02:22:56.890Z,20.37
2023-03-16T02:24:00.142Z,20.73
2023-03-16T02:25:02.085Z,20.40
2023-03-16T02:26:05.338Z,23.43
2023-03-16T02:27:10.485Z,21.50
2023-03-16T02:28:25.752Z,20.80
2023-03-16T02:29:38.273Z,25.37
2023-03-16T02:30:40.087Z,18.90
2023-03-16T02:31:42.006Z,21.27
2023-03-16T02:32:46.001Z,21.70
2023-03-16T02:33:49.655Z,22.23
2023-03-16T02:34:52.145Z,21.03
2023-03-16T02:35:56.072Z,22.73
2023-03-16T02:36:59.616Z,21.23
2023-03-16T02:38:02.339Z,21.80
2023-03-16T02:39:09.332Z,21.73
2023-03-16T02:40:31.674Z,20.47
2023-03-16T02:41:37.076Z,20.70
2023-03-16T02:42:38.754Z,20.63
2023-03-16T02:44:04.368Z,21.77
2023-03-16T02:45:10.482Z,21.13
2023-03-16T02:46:12.467Z,20.53
2023-03-16T02:47:20.040Z,20.17
2023-03-16T02:48:25.814Z,21.30
2023-03-16T02:49:34.004Z,21.87
2023-03-16T02:50:35.624Z,20.70
2023-03-16T02:51:37.228Z,22.57
2023-03-16T02:52:39.254Z,22.93
2023-03-16T02:53:40.996Z,22.53
2023-03-16T02:54:42.740Z,19.40
2023-03-16T02:55:45.957Z,20.87
2023-03-16T02:56:50.510Z,23.03
2023-03-16T02:58:01.517Z,22.93
2023-03-16T02:59:03.313Z,19.87
2023-03-16T03:00:12.421Z,20.73
2023-03-16T03:01:15.240Z,22.07
2023-03-16T03:02:19.551Z,22.60
2023-03-16T03:03:24.970Z,22.97
2023-03-16T03:04:27.109Z,19.73
2023-03-16T03:05:28.775Z,18.73
2023-03-16T03:06:32.871Z,21.43
2023-03-16T03:07:35.679Z,20.73
2023-03-16T03:08:40.413Z,20.27
2023-03-16T03:09:44.983Z,20.87
2023-03-16T03:10:47.375Z,21.53
2023-03-16T03:11:49.325Z,18.90
2023-03-16T03:13:00.519Z,22.33
2023-03-16T03:14:02.626Z,20.87
2023-03-16T03:15:05.648Z,21.93
2023-03-16T03:16:14.584Z,21.77
2023-03-16T03:17:16.928Z,20.60
2023-03-16T03:18:18.729Z,19.63
2023-03-16T03:19:20.386Z,19.50
2023-03-16T03:20:24.088Z,19.77
2023-03-16T03:21:26.105Z,18.57
2023-03-16T03:22:28.656Z,19.87
2023-03-16T03:23:36.599Z,22.43
2023-03-16T03:24:45.429Z,22.67
2023-03-16T03:25:51.132Z,19.10
2023-03-16T03:27:00.070Z,21.00
2023-03-16T03:28:05.114Z,19.73
2023-03-16T03:29:06.946Z,19.93
2023-03-16T03:30:10.468Z,17.33
2023-03-16T03:31:20.023Z,21.50
2023-03-16T03:32:22.028Z,19.07
2023-03-16T03:33:23.997Z,20.80
2023-03-16T03:34:29.393Z,18.43
2023-03-16T03:35:43.261Z,19.37
2023-03-16T03:36:48.091Z,19.77
2023-03-16T03:37:52.303Z,19.40
2023-03-16T03:39:02.077Z,17.67
2023-03-16T03:40:06.149Z,19.70
2023-03-16T03:41:11.674Z,16.40
2023-03-16T03:42:32.614Z,18.87
2023-03-16T03:43:42.440Z,15.97
2023-03-16T03:44:51.588Z,16.20
2023-03-16T03:47:31.349Z,15.37
2023-03-16T03:48:34.527Z,15.47
2023-03-16T03:49:38.092Z,15.53
2023-03-16T03:52:51.975Z,14.73
2023-03-16T03:54:07.204Z,15.30
2023-03-16T03:55:50.091Z,15.73
2023-03-16T03:57:03.952Z,14.20
2023-03-16T03:58:17.395Z,14.20
2023-03-16T03:59:19.873Z,14.33
2023-03-16T04:00:45.924Z,14.13
2023-03-16T04:01:49.303Z,12.90
2023-03-16T04:03:00.628Z,14.37
2023-03-16T04:04:18.311Z,13.87
2023-03-16T04:05:19.814Z,14.37
2023-03-16T04:06:22.823Z,12.73
2023-03-16T04:07:24.190Z,13.97
2023-03-16T04:08:29.154Z,13.50
2023-03-16T04:09:33.880Z,13.00
2023-03-16T04:10:35.865Z,13.30
2023-03-16T04:11:37.857Z,12.80
2023-03-16T04:12:39.660Z,13.07
2023-03-16T04:13:43.089Z,13.13
2023-03-16T04:14:45.225Z,13.37
2023-03-16T04:15:46.973Z,13.40
2023-03-16T04:16:54.760Z,14.07
2023-03-16T04:17:56.285Z,12.67
2023-03-16T04:18:58.841Z,13.40
2023-03-16T04:20:01.962Z,13.50
2023-03-16T04:21:04.358Z,14.17
2023-03-16T04:22:06.555Z,15.23
2023-03-16T04:23:07.977Z,16.87
2023-03-16T04:24:14.782Z,15.03
2023-03-16T04:25:17.704Z,13.33
2023-03-16T04:26:20.698Z,14.40
2023-03-16T04:27:23.189Z,14.00
2023-03-16T04:28:26.344Z,14.57
2023-03-16T04:29:28.078Z,14.57
2023-03-16T04:30:31.855Z,14.60
2023-03-16T04:31:45.154Z,15.07
2023-03-16T04:32:47.612Z,14.57
2023-03-16T04:33:56.027Z,13.57
2023-03-16T04:34:58.218Z,14.27
2023-03-16T04:36:10.307Z,14.00
2023-03-16T04:37:13.312Z,14.57
2023-03-16T04:38:16.829Z,14.67
2023-03-16T04:39:26.786Z,13.47
2023-03-16T04:40:30.309Z,16.07
2023-03-16T04:41:39.374Z,14.13
2023-03-16T04:42:47.376Z,14.17
2023-03-16T04:43:53.133Z,13.93
2023-03-16T04:44:57.458Z,14.90
2023-03-16T04:45:58.858Z,14.73
2023-03-16T04:47:03.311Z,15.90
2023-03-16T04:48:11.170Z,13.87
2023-03-16T04:49:13.134Z,15.40
2023-03-16T04:50:17.658Z,15.20
2023-03-16T04:51:25.417Z,14.20
2023-03-16T04:52:38.228Z,14.63
2023-03-16T04:53:40.205Z,14.37
2023-03-16T04:54:51.852Z,14.63
2023-03-16T04:55:53.577Z,13.60
2023-03-16T04:58:18.708Z,13.40
2023-03-16T04:59:26.845Z,14.47
2023-03-16T05:00:49.194Z,14.40
2023-03-16T05:01:56.599Z,14.97
2023-03-16T05:02:58.031Z,14.87
2023-03-16T05:03:59.872Z,19.07
2023-03-16T05:05:03.110Z,12.97
2023-03-16T05:06:05.197Z,13.47
2023-03-16T05:07:08.342Z,16.57
2023-03-16T05:08:12.513Z,15.13
2023-03-16T05:09:16.106Z,14.10
2023-03-16T05:10:21.904Z,14.67
2023-03-16T05:11:23.284Z,16.07
2023-03-16T05:12:30.866Z,15.00
2023-03-16T05:13:36.248Z,14.17
2023-03-16T05:14:38.840Z,15.53
2023-03-16T05:16:03.617Z,14.23
2023-03-16T05:17:09.031Z,13.53
2023-03-16T05:18:10.405Z,14.87
2023-03-16T05:19:12.431Z,13.40
2023-03-16T05:20:16.193Z,13.80
2023-03-16T05:21:25.444Z,13.50
2023-03-16T05:22:33.154Z,16.47
2023-03-16T05:23:48.746Z,15.13
2023-03-16T05:24:50.098Z,14.60
2023-03-16T05:25:51.916Z,15.50
2023-03-16T05:26:55.504Z,17.43
2023-03-16T05:27:58.208Z,16.20
2023-03-16T05:29:05.777Z,15.03
2023-03-16T05:30:07.802Z,16.33
2023-03-16T05:31:09.901Z,15.13
2023-03-16T05:32:18.532Z,16.30
2023-03-16T05:33:21.634Z,14.37
2023-03-16T05:34:26.367Z,14.13
2023-03-16T05:35:28.158Z,15.17
2023-03-16T05:36:36.266Z,14.93
2023-03-16T05:37:43.322Z,15.00
2023-03-16T05:38:48.677Z,13.47
2023-03-16T05:40:00.260Z,15.23
2023-03-16T05:41:05.906Z,15.80
2023-03-16T05:42:19.950Z,15.23
2023-03-16T05:43:31.001Z,15.83
2023-03-16T05:44:33.677Z,17.73
2023-03-16T05:45:47.460Z,18.97
2023-03-16T05:46:52.137Z,21.37
2023-03-16T05:47:53.695Z,14.90
2023-03-16T05:48:55.323Z,17.10
2023-03-16T05:49:56.765Z,15.67
2023-03-16T05:51:07.124Z,19.10
2023-03-16T05:52:08.572Z,18.03
2023-03-16T05:53:10.590Z,17.10
2023-03-16T05:54:14.000Z,16.97
2023-03-16T05:55:20.209Z,16.00
2023-03-16T05:56:28.268Z,16.03
2023-03-16T05:57:30.375Z,15.73
2023-03-16T05:58:34.001Z,16.50
2023-03-16T05:59:36.008Z,15.70
2023-03-16T06:00:39.451Z,12.67
2023-03-16T06:01:51.989Z,15.63
2023-03-16T06:02:55.502Z,14.70
2023-03-16T06:04:05.430Z,14.77
2023-03-16T06:05:10.325Z,13.53
2023-03-16T06:06:15.420Z,15.63
2023-03-16T06:07:29.154Z,13.77
2023-03-16T06:08:30.782Z,16.77
2023-03-16T06:09:40.591Z,15.00
2023-03-16T06:10:47.971Z,13.83
2023-03-16T06:11:51.386Z,15.53
2023-03-16T06:12:53.389Z,12.73
2023-03-16T06:13:57.892Z,14.27
2023-03-16T06:14:59.418Z,13.80
2023-03-16T06:16:01.720Z,13.23
2023-03-16T06:17:03.144Z,11.67
2023-03-16T06:18:05.558Z,13.20
2023-03-16T06:19:07.015Z,13.97
2023-03-16T06:20:13.025Z,10.97
2023-03-16T06:21:16.123Z,14.07
2023-03-16T06:22:18.229Z,13.83
2023-03-16T06:23:21.303Z,11.97
2023-03-16T06:24:23.453Z,12.23
2023-03-16T06:25:25.897Z,12.93
2023-03-16T06:26:27.851Z,13.13
2023-03-16T06:27:29.839Z,13.60
2023-03-16T06:28:42.829Z,13.77
2023-03-16T06:29:44.222Z,12.93
2023-03-16T06:30:45.740Z,13.17
2023-03-16T06:31:47.213Z,12.43
2023-03-16T06:32:49.575Z,12.00
2023-03-16T06:33:51.508Z,11.30
2023-03-16T06:34:53.796Z,13.00
2023-03-16T06:35:55.676Z,12.70
2023-03-16T06:37:06.316Z,11.20
2023-03-16T06:38:08.132Z,11.63
2023-03-16T06:39:32.500Z,12.37
2023-03-16T06:40:34.146Z,11.27
2023-03-16T06:41:35.811Z,11.80
2023-03-16T06:42:37.424Z,10.87
2023-03-16T06:43:39.248Z,10.27
2023-03-16T06:44:41.383Z,11.40
2023-03-16T06:45:44.812Z,11.93
2023-03-16T06:46:46.214Z,10.10
2023-03-16T06:47:47.896Z,11.43
2023-03-16T06:48:49.865Z,11.37
2023-03-16T06:49:51.875Z,10.57
2023-03-16T06:50:55.983Z,10.53
2023-03-16T06:52:01.953Z,10.63
2023-03-16T06:53:03.389Z,9.67
2023-03-16T06:54:06.520Z,11.10
2023-03-16T06:55:12.803Z,10.37
2023-03-16T06:56:17.140Z,11.97
2023-03-16T06:57:20.199Z,10.67
2023-03-16T06:58:21.579Z,12.83
2023-03-16T06:59:23.130Z,11.27
2023-03-16T07:00:25.381Z,11.10
2023-03-16T07:01:26.939Z,11.97
2023-03-16T07:02:28.514Z,12.40
2023-03-16T07:03:30.224Z,11.23
2023-03-16T07:04:36.407Z,11.50
2023-03-16T07:05:37.942Z,11.57
2023-03-16T07:06:39.636Z,11.23
2023-03-16T07:07:42.688Z,9.87
2023-03-16T07:08:44.290Z,11.30
2023-03-16T07:09:46.241Z,11.00
2023-03-16T07:10:47.646Z,11.70
2023-03-16T07:11:49.082Z,9.80
2023-03-16T07:12:50.626Z,10.00
2023-03-16T07:13:52.068Z,10.17
2023-03-16T07:14:55.790Z,10.33
2023-03-16T07:15:59.565Z,10.83
2023-03-16T07:17:01.709Z,10.67
2023-03-16T07:18:03.791Z,10.73
2023-03-16T07:19:05.166Z,10.37
2023-03-16T07:20:10.398Z,10.73
2023-03-16T07:21:12.288Z,10.77
2023-03-16T07:22:13.780Z,10.90
2023-03-16T07:23:15.963Z,10.87
2023-03-16T07:24:19.415Z,11.27
2023-03-16T07:26:29.666Z,10.40
2023-03-16T07:27:57.515Z,10.27
2023-03-16T07:29:21.899Z,10.93
2023-03-16T07:30:25.241Z,9.23
2023-03-16T07:31:27.446Z,11.17
2023-03-16T07:32:32.466Z,10.60
2023-03-16T07:33:34.951Z,12.00
2023-03-16T07:34:39.457Z,9.83
2023-03-16T07:35:41.725Z,12.00
2023-03-16T07:36:43.918Z,10.30
2023-03-16T07:37:46.084Z,10.70
2023-03-16T07:38:47.521Z,10.30
2023-03-16T07:39:49.227Z,11.37
2023-03-16T07:40:52.662Z,10.80
2023-03-16T07:41:56.850Z,9.37
2023-03-16T07:43:17.131Z,11.17
2023-03-16T07:44:24.610Z,10.20
2023-03-16T07:45:27.098Z,11.50
2023-03-16T07:46:30.941Z,10.70
2023-03-16T07:47:33.560Z,10.40
2023-03-16T07:48:42.578Z,10.50
2023-03-16T07:49:44.214Z,10.53
2023-03-16T07:50:47.145Z,11.50
2023-03-16T07:51:49.265Z,10.27
2023-03-16T07:52:54.379Z,8.70
2023-03-16T07:53:55.706Z,11.17
2023-03-16T07:55:05.377Z,11.97
2023-03-16T07:56:07.916Z,9.10
2023-03-16T07:57:13.392Z,8.60
2023-03-16T07:58:18.203Z,8.97
2023-03-16T07:59:21.454Z,9.33
2023-03-16T08:00:24.200Z,9.27
2023-03-16T08:01:25.881Z,8.83
2023-03-16T08:02:27.379Z,8.33
2023-03-16T08:03:29.767Z,10.07
2023-03-16T08:04:33.361Z,10.57
2023-03-16T08:05:38.358Z,8.00
2023-03-16T08:06:45.554Z,8.93
2023-03-16T08:07:47.062Z,9.47
2023-03-16T08:08:53.303Z,8.80
2023-03-16T08:10:02.172Z,10.40
2023-03-16T08:11:12.201Z,8.73
2023-03-16T08:12:27.697Z,8.83
2023-03-16T08:13:32.271Z,8.77
2023-03-16T08:14:37.078Z,8.83
2023-03-16T08:15:48.690Z,8.87
2023-03-16T08:16:57.721Z,8.27
2023-03-16T08:18:04.185Z,8.57
2023-03-16T08:19:05.608Z,9.27
2023-03-16T08:20:10.201Z,8.00
2023-03-16T08:21:11.817Z,8.30
2023-03-16T08:22:13.252Z,8.60
2023-03-16T08:23:18.292Z,8.10
2023-03-16T08:24:21.083Z,7.77
2023-03-16T08:25:22.894Z,8.97
2023-03-16T08:26:44.484Z,9.67
2023-03-16T08:27:46.221Z,8.67
2023-03-16T08:28:51.945Z,8.57
2023-03-16T08:29:53.503Z,8.23
2023-03-16T08:30:58.488Z,8.67
2023-03-16T08:32:20.595Z,8.43
2023-03-16T08:33:23.569Z,10.27
2023-03-16T08:34:27.300Z,8.37
2023-03-16T08:35:29.024Z,9.40
2023-03-16T08:36:30.377Z,8.97
2023-03-16T08:37:32.932Z,8.30
2023-03-16T08:38:35.100Z,9.20
2023-03-16T08:39:42.382Z,8.40
2023-03-16T08:40:48.414Z,8.93
2023-03-16T08:41:51.063Z,8.43
2023-03-16T08:43:04.225Z,8.00
2023-03-16T08:44:07.694Z,8.27
2023-03-16T08:45:14.114Z,8.27
2023-03-16T08:46:17.523Z,8.13
2023-03-16T08:47:24.506Z,8.70
2023-03-16T08:48:26.448Z,7.70
2023-03-16T08:49:29.394Z,7.87
2023-03-16T08:50:37.607Z,7.70
2023-03-16T08:51:39.195Z,7.37
2023-03-16T08:52:40.831Z,9.03
2023-03-16T08:53:42.234Z,8.53
2023-03-16T08:54:59.815Z,9.13
2023-03-16T08:56:07.772Z,8.23
2023-03-16T08:57:10.514Z,7.93
2023-03-16T08:58:12.737Z,9.13
2023-03-16T08:59:27.369Z,7.50
2023-03-16T09:00:31.389Z,8.03
2023-03-16T09:01:34.067Z,9.17
2023-03-16T09:02:38.431Z,8.37
2023-03-16T09:03:40.630Z,8.07
2023-03-16T09:04:42.104Z,9.43
2023-03-16T09:05:43.552Z,7.90
2023-03-16T09:06:45.638Z,7.90
2023-03-16T09:07:49.010Z,8.70
2023-03-16T09:08:50.660Z,8.17
2023-03-16T09:09:52.671Z,8.10
2023-03-16T09:11:05.624Z,9.27
2023-03-16T09:12:07.168Z,8.77
2023-03-16T09:13:08.688Z,9.23
2023-03-16T09:14:11.746Z,8.60
2023-03-16T09:15:14.061Z,8.10
2023-03-16T09:16:15.802Z,9.70
2023-03-16T09:17:17.220Z,8.23
2023-03-16T09:18:19.602Z,9.57
2023-03-16T09:19:22.342Z,8.10
2023-03-16T09:20:26.972Z,9.43
2023-03-16T09:21:31.284Z,7.77
2023-03-16T09:22:32.923Z,8.90
2023-03-16T09:23:37.465Z,10.07
2023-03-16T09:24:39.351Z,7.50
2023-03-16T09:25:41.079Z,8.93
2023-03-16T09:26:42.635Z,8.13
2023-03-16T09:27:44.644Z,7.63
2023-03-16T09:28:46.653Z,7.87
2023-03-16T09:29:48.756Z,8.73
2023-03-16T09:30:50.483Z,8.40
2023-03-16T09:31:51.925Z,8.37
2023-03-16T09:32:54.480Z,7.53
2023-03-16T09:33:55.882Z,7.33
2023-03-16T09:34:57.387Z,7.57
2023-03-16T09:35:58.782Z,8.00
2023-03-16T09:37:03.721Z,8.50
2023-03-16T09:38:06.601Z,7.43
2023-03-16T09:39:08.745Z,8.00
2023-03-16T09:40:28.969Z,7.67
2023-03-16T09:41:36.212Z,9.07
2023-03-16T09:42:40.950Z,8.10
2023-03-16T09:43:43.310Z,7.77
2023-03-16T09:44:47.192Z,8.80
2023-03-16T09:46:10.541Z,8.20
2023-03-16T09:47:12.282Z,9.00
2023-03-16T09:48:14.524Z,7.00
2023-03-16T09:49:17.789Z,7.63
2023-03-16T09:50:38.145Z,8.00
2023-03-16T09:52:00.711Z,7.10
2023-03-16T09:53:06.020Z,8.63
2023-03-16T09:54:15.464Z,7.73
2023-03-16T09:55:25.895Z,8.23
2023-03-16T09:56:30.169Z,8.10
2023-03-16T09:57:35.443Z,7.70
2023-03-16T09:58:36.980Z,6.83
2023-03-16T09:59:38.966Z,7.37
2023-03-16T10:00:48.702Z,7.43
2023-03-16T10:02:04.286Z,7.57
2023-03-16T10:03:15.262Z,6.83
2023-03-16T10:04:19.656Z,7.97
2023-03-16T10:05:21.878Z,7.73
2023-03-16T10:06:24.776Z,7.73
2023-03-16T10:07:34.626Z,8.20
2023-03-16T10:08:56.720Z,7.10
2023-03-16T10:10:00.840Z,6.43
2023-03-16T10:11:20.960Z,6.90
2023-03-16T10:12:26.183Z,7.97
2023-03-16T10:13:36.609Z,6.63
2023-03-16T10:14:41.312Z,8.77
2023-03-16T10:15:42.790Z,7.33
2023-03-16T10:16:47.524Z,6.50
2023-03-16T10:17:54.593Z,6.17
2023-03-16T10:19:03.478Z,6.30
2023-03-16T10:20:18.343Z,6.77
2023-03-16T10:21:21.304Z,6.60
2023-03-16T10:22:27.852Z,6.70
2023-03-16T10:23:31.714Z,6.90
2023-03-16T10:24:55.280Z,7.23
2023-03-16T10:25:56.686Z,7.33
2023-03-16T10:27:00.337Z,7.53
2023-03-16T10:28:02.104Z,6.57
2023-03-16T10:29:04.111Z,7.13
2023-03-16T10:30:14.725Z,7.53
2023-03-16T10:31:18.016Z,6.23
2023-03-16T10:32:19.567Z,7.57
2023-03-16T10:33:28.187Z,6.77
2023-03-16T10:34:30.596Z,8.23
2023-03-16T10:35:34.680Z,7.67
2023-03-16T10:36:38.228Z,7.33
2023-03-16T10:37:40.493Z,7.93
2023-03-16T10:38:46.935Z,8.07
2023-03-16T10:39:48.962Z,6.80
2023-03-16T10:40:52.135Z,7.63
2023-03-16T10:41:57.313Z,8.30
2023-03-16T10:43:05.125Z,7.10
2023-03-16T10:44:14.770Z,8.03
2023-03-16T10:45:28.969Z,6.53
2023-03-16T10:46:35.949Z,8.10
2023-03-16T10:47:37.894Z,8.57
2023-03-16T10:48:40.453Z,7.10
2023-03-16T10:49:45.446Z,8.30
2023-03-16T10:50:54.838Z,6.67
2023-03-16T10:51:59.393Z,6.30
2023-03-16T10:53:01.609Z,6.40
2023-03-16T10:54:14.290Z,6.53
2023-03-16T10:55:17.491Z,7.00
2023-03-16T10:56:23.896Z,7.93
2023-03-16T10:57:26.974Z,8.47
2023-03-16T10:58:33.610Z,7.30
2023-03-16T10:59:36.873Z,8.70
2023-03-16T11:00:41.843Z,6.70
2023-03-16T11:01:45.253Z,6.60
2023-03-16T11:02:49.058Z,6.20
2023-03-16T11:03:51.598Z,8.43
2023-03-16T11:04:54.327Z,6.50
2023-03-16T11:06:03.466Z,7.37
2023-03-16T11:07:09.141Z,9.30
2023-03-16T11:08:16.490Z,6.60
2023-03-16T11:09:23.233Z,8.87
2023-03-16T11:10:40.424Z,7.17
2023-03-16T11:11:49.651Z,7.27
2023-03-16T11:12:51.438Z,6.13
2023-03-16T11:13:55.682Z,6.50
2023-03-16T11:15:07.530Z,6.90
2023-03-16T11:16:30.499Z,6.70
2023-03-16T11:17:36.405Z,8.33
2023-03-16T11:18:43.539Z,9.10
2023-03-16T11:19:51.388Z,7.10
2023-03-16T11:20:54.455Z,9.67
2023-03-16T11:21:59.128Z,7.87
2023-03-16T11:23:01.462Z,6.80
2023-03-16T11:24:04.175Z,6.67
2023-03-16T11:25:09.371Z,9.03
2023-03-16T11:26:17.564Z,7.67
2023-03-16T11:27:27.709Z,7.63
2023-03-16T11:28:37.539Z,8.37
2023-03-16T11:29:46.488Z,7.23
2023-03-16T11:30:59.150Z,6.37
2023-03-16T11:32:04.329Z,6.40
2023-03-16T11:33:09.725Z,7.90
2023-03-16T11:34:15.909Z,9.63
2023-03-16T11:35:19.569Z,7.87
2023-03-16T11:36:39.568Z,6.87
2023-03-16T11:37:51.611Z,7.03
2023-03-16T11:39:04.680Z,7.83
2023-03-16T11:40:24.846Z,9.07
2023-03-16T11:41:34.717Z,8.37
2023-03-16T11:42:42.995Z,8.67
2023-03-16T11:43:55.337Z,8.40
2023-03-16T11:45:18.884Z,8.60
2023-03-16T11:46:20.648Z,10.47
2023-03-16T11:47:40.734Z,7.17
2023-03-16T11:48:52.889Z,6.60
2023-03-16T11:49:58.806Z,7.77
2023-03-16T11:51:24.688Z,6.60
2023-03-16T11:52:35.902Z,6.70
2023-03-16T11:53:49.288Z,7.87
2023-03-16T11:55:06.325Z,6.77
2023-03-16T11:56:10.593Z,7.57
2023-03-16T11:57:18.300Z,5.97
2023-03-16T11:58:38.257Z,7.93
2023-03-16T11:59:48.975Z,6.13
2023-03-16T12:01:01.722Z,6.20
2023-03-16T12:02:09.887Z,7.60
2023-03-16T12:03:14.734Z,7.50
2023-03-16T12:04:24.641Z,6.93
2023-03-16T12:05:26.561Z,9.13
2023-03-16T12:06:30.696Z,7.47
2023-03-16T12:07:35.348Z,7.60
2023-03-16T12:08:44.946Z,7.87
2023-03-16T12:10:06.651Z,6.20
2023-03-16T12:11:25.847Z,6.70
2023-03-16T12:12:38.061Z,7.77
2023-03-16T12:13:45.923Z,6.90
2023-03-16T12:14:52.500Z,6.80
2023-03-16T12:15:56.750Z,7.93
2023-03-16T12:17:11.332Z,6.33
2023-03-16T12:18:25.018Z,5.80
2023-03-16T12:19:40.091Z,5.70
2023-03-16T12:20:45.841Z,6.23
2023-03-16T12:21:49.081Z,6.43
2023-03-16T12:22:53.671Z,6.27
2023-03-16T12:23:57.083Z,5.77
2023-03-16T12:24:58.488Z,7.30
2023-03-16T12:26:00.767Z,5.37
2023-03-16T12:27:02.515Z,7.10
2023-03-16T12:28:07.583Z,6.00
2023-03-16T12:29:31.571Z,6.47
2023-03-16T12:30:41.087Z,6.93
2023-03-16T12:32:02.226Z,5.93
2023-03-16T12:33:03.844Z,6.87
2023-03-16T12:34:08.343Z,6.00
2023-03-16T12:35:18.687Z,5.77
2023-03-16T12:36:22.746Z,4.93
2023-03-16T12:37:44.938Z,7.77
2023-03-16T12:38:53.353Z,9.07
2023-03-16T12:40:05.848Z,6.73
2023-03-16T12:41:10.294Z,7.73
2023-03-16T12:42:15.004Z,8.20
2023-03-16T12:43:35.914Z,6.33
2023-03-16T12:44:43.454Z,7.10
2023-03-16T12:45:53.532Z,5.90
2023-03-16T12:46:56.148Z,9.27
2023-03-16T12:48:00.857Z,6.20
2023-03-16T12:49:05.014Z,5.87
2023-03-16T12:50:07.466Z,6.10
2023-03-16T12:51:08.920Z,7.60
2023-03-16T12:52:12.503Z,6.27
2023-03-16T12:53:25.007Z,6.47
2023-03-16T12:54:26.396Z,7.03
2023-03-16T12:55:34.467Z,5.43
2023-03-16T12:56:43.378Z,5.40
2023-03-16T12:57:45.541Z,5.40
2023-03-16T12:58:48.591Z,4.90
2023-03-16T12:59:55.454Z,6.70
2023-03-16T13:00:59.361Z,5.77
2023-03-16T13:02:03.584Z,5.43
2023-03-16T13:03:06.377Z,5.47
2023-03-16T13:04:16.112Z,6.50
2023-03-16T13:05:18.467Z,6.80
2023-03-16T13:06:23.805Z,5.50
2023-03-16T13:07:29.615Z,5.40
2023-03-16T13:08:41.293Z,6.93
2023-03-16T13:09:44.646Z,4.67
2023-03-16T13:11:04.971Z,4.53
2023-03-16T13:12:07.114Z,5.07
2023-03-16T13:13:16.031Z,5.43
2023-03-16T13:14:33.596Z,5.43
2023-03-16T13:15:34.939Z,5.33
2023-03-16T13:16:37.518Z,5.47
2023-03-16T13:17:39.324Z,6.80
2023-03-16T13:18:44.705Z,4.90
2023-03-16T13:19:57.506Z,5.30
2023-03-16T13:21:00.832Z,5.60
2023-03-16T13:22:04.311Z,6.60
2023-03-16T13:23:18.226Z,5.87
2023-03-16T13:24:25.742Z,4.63
2023-03-16T13:25:27.180Z,5.90
2023-03-16T13:26:43.235Z,5.40
2023-03-16T13:27:49.195Z,4.63
2023-03-16T13:28:51.484Z,4.80
2023-03-16T13:29:54.912Z,5.20
2023-03-16T13:30:56.274Z,5.07
2023-03-16T13:32:02.276Z,4.40
2023-03-16T13:33:15.240Z,4.60
2023-03-16T13:34:21.372Z,5.10
2023-03-16T13:35:25.653Z,7.70
2023-03-16T13:36:28.645Z,5.87
2023-03-16T13:37:30.497Z,5.87
2023-03-16T13:38:32.400Z,4.60
2023-03-16T13:39:33.731Z,6.30
2023-03-16T13:40:37.921Z,4.50
2023-03-16T13:41:39.339Z,5.57
2023-03-16T13:42:40.763Z,4.47
2023-03-16T13:43:44.038Z,8.20
2023-03-16T13:44:45.708Z,5.33
2023-03-16T13:45:47.261Z,4.43
2023-03-16T13:46:50.771Z,4.57
2023-03-16T13:47:52.523Z,6.97
2023-03-16T13:48:53.825Z,5.87
2023-03-16T13:49:56.378Z,6.20
2023-03-16T13:50:58.572Z,5.37
2023-03-16T13:52:02.073Z,4.47
2023-03-16T13:53:04.759Z,4.07
2023-03-16T13:54:18.480Z,5.87
2023-03-16T13:55:23.460Z,5.27
2023-03-16T13:56:28.679Z,4.90
2023-03-16T13:57:32.030Z,5.20
2023-03-16T13:58:35.590Z,3.73
2023-03-16T13:59:37.207Z,5.27
2023-03-16T14:00:43.837Z,4.37
2023-03-16T14:01:46.163Z,7.23
2023-03-16T14:02:51.122Z,5.83
2023-03-16T14:03:53.624Z,3.73
2023-03-16T14:04:54.945Z,4.73
2023-03-16T14:05:57.348Z,8.33
2023-03-16T14:07:00.255Z,4.47
2023-03-16T14:08:02.115Z,5.67
2023-03-16T14:09:07.963Z,6.53
2023-03-16T14:10:10.967Z,3.17
2023-03-16T14:11:12.458Z,5.20
2023-03-16T14:12:18.320Z,4.93
2023-03-16T14:13:38.167Z,4.93
2023-03-16T14:14:41.195Z,3.57
2023-03-16T14:15:45.246Z,4.23
2023-03-16T14:16:46.646Z,4.00
2023-03-16T14:17:48.023Z,4.30
2023-03-16T14:18:52.588Z,4.03
2023-03-16T14:19:59.555Z,6.43
2023-03-16T14:21:05.125Z,5.27
2023-03-16T14:22:06.868Z,3.90
2023-03-16T14:23:34.228Z,2.90
2023-03-16T14:24:37.587Z,4.07
2023-03-16T14:25:39.631Z,3.73
2023-03-16T14:26:41.825Z,3.83
2023-03-16T14:27:44.938Z,4.10
2023-03-16T14:28:57.394Z,3.53
2023-03-16T14:30:09.481Z,3.53
2023-03-16T14:31:12.432Z,3.40
2023-03-16T14:32:28.066Z,4.23